sensor_id;sensor_type;location;lat;lon;timestamp;temperature;humidity
15160;DHT22;7680;48.800;9.680;2022-07-03T00:00:18;15.80;99.90
15160;DHT22;7680;48.800;9.680;2022-07-03T00:02:52;15.80;99.90
15160;DHT22;7680;48.800;9.680;2022-07-03T00:05:26;15.80;99.90
15160;DHT22;7680;48.800;9.680;2022-07-03T00:07:59;15.70;99.90
15160;DHT22;7680;48.800;9.680;2022-07-03T00:10:32;15.70;99.90
15160;DHT22;7680;48.800;9.680;2022-07-03T00:13:06;15.60;99.90
15160;DHT22;7680;48.800;9.680;2022-07-03T00:15:39;15.70;99.90
15160;DHT22;7680;48.800;9.680;2022-07-03T00:18:14;15.70;99.90
15160;DHT22;7680;48.800;9.680;2022-07-03T00:20:49;15.80;99.90
15160;DHT22;7680;48.800;9.680;2022-07-03T00:23:23;15.70;99.90
15160;DHT22;7680;48.800;9.680;2022-07-03T00:25:58;15.70;99.90
15160;DHT22;7680;48.800;9.680;2022-07-03T00:28:34;15.70;99.90
15160;DHT22;7680;48.800;9.680;2022-07-03T00:31:07;15.60;99.90
15160;DHT22;7680;48.800;9.680;2022-07-03T00:33:44;15.50;99.90
15160;DHT22;7680;48.800;9.680;2022-07-03T00:36:18;15.40;99.90
15160;DHT22;7680;48.800;9.680;2022-07-03T00:38:51;15.30;99.90
15160;DHT22;7680;48.800;9.680;2022-07-03T00:41:25;15.30;99.90
15160;DHT22;7680;48.800;9.680;2022-07-03T00:44:00;15.30;99.90
15160;DHT22;7680;48.800;9.680;2022-07-03T00:46:37;15.30;99.90
15160;DHT22;7680;48.800;9.680;2022-07-03T00:49:13;15.30;99.90
15160;DHT22;7680;48.800;9.680;2022-07-03T00:51:51;15.30;99.90
15160;DHT22;7680;48.800;9.680;2022-07-03T00:54:26;15.30;99.90
15160;DHT22;7680;48.800;9.680;2022-07-03T00:57:00;15.40;99.90
15160;DHT22;7680;48.800;9.680;2022-07-03T00:59:34;15.40;99.90
15160;DHT22;7680;48.800;9.680;2022-07-03T01:02:08;15.30;99.90
15160;DHT22;7680;48.800;9.680;2022-07-03T01:04:51;15.40;99.90
15160;DHT22;7680;48.800;9.680;2022-07-03T01:07:39;15.30;99.90
15160;DHT22;7680;48.800;9.680;2022-07-03T01:10:25;15.30;99.90
15160;DHT22;7680;48.800;9.680;2022-07-03T01:13:17;15.20;99.90
15160;DHT22;7680;48.800;9.680;2022-07-03T01:16:02;15.30;99.90
15160;DHT22;7680;48.800;9.680;2022-07-03T01:18:43;15.30;99.90
15160;DHT22;7680;48.800;9.680;2022-07-03T01:21:41;15.20;99.90
15160;DHT22;7680;48.800;9.680;2022-07-03T01:24:36;15.20;99.90
15160;DHT22;7680;48.800;9.680;2022-07-03T01:27:19;15.10;99.90
15160;DHT22;7680;48.800;9.680;2022-07-03T01:30:03;15.10;99.90
15160;DHT22;7680;48.800;9.680;2022-07-03T01:32:38;15.10;99.90
15160;DHT22;7680;48.800;9.680;2022-07-03T01:35:20;15.00;99.90
15160;DHT22;7680;48.800;9.680;2022-07-03T01:37:55;15.00;99.90
15160;DHT22;7680;48.800;9.680;2022-07-03T01:40:28;14.90;99.90
15160;DHT22;7680;48.800;9.680;2022-07-03T01:43:05;14.90;99.90
15160;DHT22;7680;48.800;9.680;2022-07-03T01:45:43;14.80;99.90
15160;DHT22;7680;48.800;9.680;2022-07-03T01:48:18;14.80;99.90
15160;DHT22;7680;48.800;9.680;2022-07-03T01:50:52;14.90;99.90
15160;DHT22;7680;48.800;9.680;2022-07-03T01:53:28;14.90;99.90
15160;DHT22;7680;48.800;9.680;2022-07-03T01:56:02;14.80;99.90
15160;DHT22;7680;48.800;9.680;2022-07-03T01:58:37;14.80;99.90
15160;DHT22;7680;48.800;9.680;2022-07-03T02:01:18;14.70;99.90
15160;DHT22;7680;48.800;9.680;2022-07-03T02:04:02;14.70;99.90
15160;DHT22;7680;48.800;9.680;2022-07-03T02:06:42;14.50;99.90
15160;DHT22;7680;48.800;9.680;2022-07-03T02:09:24;14.50;99.90
15160;DHT22;7680;48.800;9.680;2022-07-03T02:11:58;14.50;99.90
15160;DHT22;7680;48.800;9.680;2022-07-03T02:14:37;14.50;99.90
15160;DHT22;7680;48.800;9.680;2022-07-03T02:17:16;14.60;99.90
15160;DHT22;7680;48.800;9.680;2022-07-03T02:19:53;14.60;99.90
15160;DHT22;7680;48.800;9.680;2022-07-03T02:22:31;14.50;99.90
15160;DHT22;7680;48.800;9.680;2022-07-03T02:25:07;14.50;99.90
15160;DHT22;7680;48.800;9.680;2022-07-03T02:27:43;14.50;99.90
15160;DHT22;7680;48.800;9.680;2022-07-03T02:30:18;14.50;99.90
15160;DHT22;7680;48.800;9.680;2022-07-03T02:32:52;14.50;99.90
15160;DHT22;7680;48.800;9.680;2022-07-03T02:35:27;14.50;99.90
15160;DHT22;7680;48.800;9.680;2022-07-03T02:38:04;14.50;99.90
15160;DHT22;7680;48.800;9.680;2022-07-03T02:40:42;14.50;99.90
15160;DHT22;7680;48.800;9.680;2022-07-03T02:43:21;14.50;99.90
15160;DHT22;7680;48.800;9.680;2022-07-03T02:46:04;14.50;99.90
15160;DHT22;7680;48.800;9.680;2022-07-03T02:49:07;14.40;99.90
15160;DHT22;7680;48.800;9.680;2022-07-03T02:51:50;14.30;99.90
15160;DHT22;7680;48.800;9.680;2022-07-03T02:54:32;14.30;99.90
15160;DHT22;7680;48.800;9.680;2022-07-03T02:57:09;14.30;99.90
15160;DHT22;7680;48.800;9.680;2022-07-03T02:59:54;14.20;99.90
15160;DHT22;7680;48.800;9.680;2022-07-03T03:02:56;14.20;99.90
15160;DHT22;7680;48.800;9.680;2022-07-03T03:05:35;14.10;99.90
15160;DHT22;7680;48.800;9.680;2022-07-03T03:08:17;14.20;99.90
15160;DHT22;7680;48.800;9.680;2022-07-03T03:11:01;14.20;99.90
15160;DHT22;7680;48.800;9.680;2022-07-03T03:13:47;14.10;99.90
15160;DHT22;7680;48.800;9.680;2022-07-03T03:16:23;14.10;99.90
15160;DHT22;7680;48.800;9.680;2022-07-03T03:18:58;14.10;99.90
15160;DHT22;7680;48.800;9.680;2022-07-03T03:21:36;14.20;99.90
15160;DHT22;7680;48.800;9.680;2022-07-03T03:24:15;14.10;99.90
15160;DHT22;7680;48.800;9.680;2022-07-03T03:26:50;14.20;99.90
15160;DHT22;7680;48.800;9.680;2022-07-03T03:29:23;14.10;99.90
15160;DHT22;7680;48.800;9.680;2022-07-03T03:31:57;14.10;99.90
15160;DHT22;7680;48.800;9.680;2022-07-03T03:34:35;14.10;99.90
15160;DHT22;7680;48.800;9.680;2022-07-03T03:37:09;14.00;99.90
15160;DHT22;7680;48.800;9.680;2022-07-03T03:39:42;14.00;99.90
15160;DHT22;7680;48.800;9.680;2022-07-03T03:42:16;14.00;99.90
15160;DHT22;7680;48.800;9.680;2022-07-03T03:44:49;14.10;99.90
15160;DHT22;7680;48.800;9.680;2022-07-03T03:47:24;14.10;99.90
15160;DHT22;7680;48.800;9.680;2022-07-03T03:49:59;14.10;99.90
15160;DHT22;7680;48.800;9.680;2022-07-03T03:52:32;14.10;99.90
15160;DHT22;7680;48.800;9.680;2022-07-03T03:55:06;14.20;99.90
15160;DHT22;7680;48.800;9.680;2022-07-03T03:57:40;14.10;99.90
15160;DHT22;7680;48.800;9.680;2022-07-03T04:00:15;14.10;99.90
15160;DHT22;7680;48.800;9.680;2022-07-03T04:02:49;14.10;99.90
15160;DHT22;7680;48.800;9.680;2022-07-03T04:05:23;14.00;99.90
15160;DHT22;7680;48.800;9.680;2022-07-03T04:07:57;14.10;99.90
15160;DHT22;7680;48.800;9.680;2022-07-03T04:10:30;14.10;99.90
15160;DHT22;7680;48.800;9.680;2022-07-03T04:13:03;14.10;99.90
15160;DHT22;7680;48.800;9.680;2022-07-03T04:15:36;14.20;99.90
15160;DHT22;7680;48.800;9.680;2022-07-03T04:18:09;14.20;99.90
15160;DHT22;7680;48.800;9.680;2022-07-03T04:20:44;14.30;99.90
15160;DHT22;7680;48.800;9.680;2022-07-03T04:23:18;14.20;99.90
15160;DHT22;7680;48.800;9.680;2022-07-03T04:25:51;14.10;99.90
15160;DHT22;7680;48.800;9.680;2022-07-03T04:28:24;14.10;99.90
15160;DHT22;7680;48.800;9.680;2022-07-03T04:30:57;14.20;99.90
15160;DHT22;7680;48.800;9.680;2022-07-03T04:33:31;14.10;99.90
15160;DHT22;7680;48.800;9.680;2022-07-03T04:36:06;14.20;99.90
15160;DHT22;7680;48.800;9.680;2022-07-03T04:38:39;14.20;99.90
15160;DHT22;7680;48.800;9.680;2022-07-03T04:41:12;14.30;99.90
15160;DHT22;7680;48.800;9.680;2022-07-03T04:43:46;14.20;99.90
15160;DHT22;7680;48.800;9.680;2022-07-03T04:46:19;14.20;99.90
15160;DHT22;7680;48.800;9.680;2022-07-03T04:48:53;14.50;99.90
15160;DHT22;7680;48.800;9.680;2022-07-03T04:51:27;15.20;99.90
15160;DHT22;7680;48.800;9.680;2022-07-03T04:54:01;16.00;99.90
15160;DHT22;7680;48.800;9.680;2022-07-03T04:56:34;16.90;99.90
15160;DHT22;7680;48.800;9.680;2022-07-03T04:59:07;17.60;99.90
15160;DHT22;7680;48.800;9.680;2022-07-03T05:01:40;18.10;99.90
15160;DHT22;7680;48.800;9.680;2022-07-03T05:04:13;18.60;99.90
15160;DHT22;7680;48.800;9.680;2022-07-03T05:06:48;18.90;99.90
15160;DHT22;7680;48.800;9.680;2022-07-03T05:09:22;19.10;99.90
15160;DHT22;7680;48.800;9.680;2022-07-03T05:11:55;19.40;99.90
15160;DHT22;7680;48.800;9.680;2022-07-03T05:14:28;19.80;99.90
15160;DHT22;7680;48.800;9.680;2022-07-03T05:17:01;20.00;99.90
15160;DHT22;7680;48.800;9.680;2022-07-03T05:19:36;20.10;99.90
15160;DHT22;7680;48.800;9.680;2022-07-03T05:22:11;20.30;99.90
15160;DHT22;7680;48.800;9.680;2022-07-03T05:24:44;20.30;99.90
15160;DHT22;7680;48.800;9.680;2022-07-03T05:27:17;20.50;99.90
15160;DHT22;7680;48.800;9.680;2022-07-03T05:29:50;20.40;99.90
15160;DHT22;7680;48.800;9.680;2022-07-03T05:32:23;20.90;99.90
15160;DHT22;7680;48.800;9.680;2022-07-03T05:34:57;21.10;99.90
15160;DHT22;7680;48.800;9.680;2022-07-03T05:37:31;21.20;99.90
15160;DHT22;7680;48.800;9.680;2022-07-03T05:40:05;21.10;99.90
15160;DHT22;7680;48.800;9.680;2022-07-03T05:42:39;21.40;99.90
15160;DHT22;7680;48.800;9.680;2022-07-03T05:45:12;21.60;99.90
15160;DHT22;7680;48.800;9.680;2022-07-03T05:47:45;21.70;99.90
15160;DHT22;7680;48.800;9.680;2022-07-03T05:50:18;22.00;99.90
15160;DHT22;7680;48.800;9.680;2022-07-03T05:52:53;22.30;99.90
15160;DHT22;7680;48.800;9.680;2022-07-03T05:55:26;22.40;99.90
15160;DHT22;7680;48.800;9.680;2022-07-03T05:57:59;22.40;99.90
15160;DHT22;7680;48.800;9.680;2022-07-03T06:00:32;22.50;99.40
15160;DHT22;7680;48.800;9.680;2022-07-03T06:03:05;22.80;99.40
15160;DHT22;7680;48.800;9.680;2022-07-03T06:05:38;22.80;99.10
15160;DHT22;7680;48.800;9.680;2022-07-03T06:08:13;23.00;99.00
15160;DHT22;7680;48.800;9.680;2022-07-03T06:10:46;23.10;99.40
15160;DHT22;7680;48.800;9.680;2022-07-03T06:13:19;23.30;98.40
15160;DHT22;7680;48.800;9.680;2022-07-03T06:15:52;23.50;98.50
15160;DHT22;7680;48.800;9.680;2022-07-03T06:18:25;23.50;98.60
15160;DHT22;7680;48.800;9.680;2022-07-03T06:20:58;23.80;98.60
15160;DHT22;7680;48.800;9.680;2022-07-03T06:23:33;24.00;98.00
15160;DHT22;7680;48.800;9.680;2022-07-03T06:26:21;24.10;97.80
15160;DHT22;7680;48.800;9.680;2022-07-03T06:28:54;24.30;97.40
15160;DHT22;7680;48.800;9.680;2022-07-03T06:31:27;24.50;97.30
15160;DHT22;7680;48.800;9.680;2022-07-03T06:34:01;24.80;96.90
15160;DHT22;7680;48.800;9.680;2022-07-03T06:36:34;25.10;96.70
15160;DHT22;7680;48.800;9.680;2022-07-03T06:39:08;25.40;95.90
15160;DHT22;7680;48.800;9.680;2022-07-03T06:41:41;25.60;95.70
15160;DHT22;7680;48.800;9.680;2022-07-03T06:44:14;26.10;94.60
15160;DHT22;7680;48.800;9.680;2022-07-03T06:46:48;26.20;93.20
15160;DHT22;7680;48.800;9.680;2022-07-03T06:49:21;26.80;92.90
15160;DHT22;7680;48.800;9.680;2022-07-03T06:51:54;27.20;91.90
15160;DHT22;7680;48.800;9.680;2022-07-03T06:54:28;27.10;92.20
15160;DHT22;7680;48.800;9.680;2022-07-03T06:57:02;27.50;90.90
15160;DHT22;7680;48.800;9.680;2022-07-03T06:59:35;27.80;90.30
15160;DHT22;7680;48.800;9.680;2022-07-03T07:02:08;28.10;89.90
15160;DHT22;7680;48.800;9.680;2022-07-03T07:04:41;28.40;88.70
15160;DHT22;7680;48.800;9.680;2022-07-03T07:07:15;28.90;88.20
15160;DHT22;7680;48.800;9.680;2022-07-03T07:09:49;29.00;88.30
15160;DHT22;7680;48.800;9.680;2022-07-03T07:12:22;29.40;87.30
15160;DHT22;7680;48.800;9.680;2022-07-03T07:15:00;29.30;85.60
15160;DHT22;7680;48.800;9.680;2022-07-03T07:17:33;29.30;85.60
15160;DHT22;7680;48.800;9.680;2022-07-03T07:20:08;29.60;85.30
15160;DHT22;7680;48.800;9.680;2022-07-03T07:22:41;29.80;82.90
15160;DHT22;7680;48.800;9.680;2022-07-03T07:25:16;29.90;83.00
15160;DHT22;7680;48.800;9.680;2022-07-03T07:27:49;30.10;82.50
15160;DHT22;7680;48.800;9.680;2022-07-03T07:30:23;30.40;82.80
15160;DHT22;7680;48.800;9.680;2022-07-03T07:32:56;30.50;82.30
15160;DHT22;7680;48.800;9.680;2022-07-03T07:35:29;30.30;81.50
15160;DHT22;7680;48.800;9.680;2022-07-03T07:38:02;30.50;81.20
15160;DHT22;7680;48.800;9.680;2022-07-03T07:40:41;30.50;80.70
15160;DHT22;7680;48.800;9.680;2022-07-03T07:43:14;30.30;81.90
15160;DHT22;7680;48.800;9.680;2022-07-03T07:45:47;30.30;80.70
15160;DHT22;7680;48.800;9.680;2022-07-03T07:48:21;30.30;79.90
15160;DHT22;7680;48.800;9.680;2022-07-03T07:50:54;30.60;79.20
15160;DHT22;7680;48.800;9.680;2022-07-03T07:53:27;30.70;79.10
15160;DHT22;7680;48.800;9.680;2022-07-03T07:56:02;30.90;77.40
15160;DHT22;7680;48.800;9.680;2022-07-03T07:58:35;31.00;78.20
15160;DHT22;7680;48.800;9.680;2022-07-03T08:01:08;31.20;77.70
15160;DHT22;7680;48.800;9.680;2022-07-03T08:03:59;30.90;77.60
15160;DHT22;7680;48.800;9.680;2022-07-03T08:06:49;30.90;78.20
15160;DHT22;7680;48.800;9.680;2022-07-03T08:09:23;31.10;77.00
15160;DHT22;7680;48.800;9.680;2022-07-03T08:11:57;31.30;76.70
15160;DHT22;7680;48.800;9.680;2022-07-03T08:14:30;31.30;76.40
15160;DHT22;7680;48.800;9.680;2022-07-03T08:17:04;31.30;75.60
15160;DHT22;7680;48.800;9.680;2022-07-03T08:19:37;31.30;74.40
15160;DHT22;7680;48.800;9.680;2022-07-03T08:22:11;31.50;74.80
15160;DHT22;7680;48.800;9.680;2022-07-03T08:24:44;31.80;72.70
15160;DHT22;7680;48.800;9.680;2022-07-03T08:27:18;31.70;73.20
15160;DHT22;7680;48.800;9.680;2022-07-03T08:29:51;31.30;73.50
15160;DHT22;7680;48.800;9.680;2022-07-03T08:32:24;31.40;73.70
15160;DHT22;7680;48.800;9.680;2022-07-03T08:34:58;31.20;72.90
15160;DHT22;7680;48.800;9.680;2022-07-03T08:37:31;31.20;73.80
15160;DHT22;7680;48.800;9.680;2022-07-03T08:40:05;31.30;75.30
15160;DHT22;7680;48.800;9.680;2022-07-03T08:42:43;31.20;72.70
15160;DHT22;7680;48.800;9.680;2022-07-03T08:45:19;31.10;73.20
15160;DHT22;7680;48.800;9.680;2022-07-03T08:47:54;31.40;71.60
15160;DHT22;7680;48.800;9.680;2022-07-03T08:50:29;31.30;71.70
15160;DHT22;7680;48.800;9.680;2022-07-03T08:53:05;31.20;70.80
15160;DHT22;7680;48.800;9.680;2022-07-03T08:55:39;31.30;69.50
15160;DHT22;7680;48.800;9.680;2022-07-03T08:58:14;31.30;70.80
15160;DHT22;7680;48.800;9.680;2022-07-03T09:00:48;31.60;66.60
15160;DHT22;7680;48.800;9.680;2022-07-03T09:03:24;31.50;69.20
15160;DHT22;7680;48.800;9.680;2022-07-03T09:05:57;31.80;68.30
15160;DHT22;7680;48.800;9.680;2022-07-03T09:08:32;31.50;64.90
15160;DHT22;7680;48.800;9.680;2022-07-03T09:11:05;31.40;66.20
15160;DHT22;7680;48.800;9.680;2022-07-03T09:13:40;31.40;66.10
15160;DHT22;7680;48.800;9.680;2022-07-03T09:16:16;31.30;66.30
15160;DHT22;7680;48.800;9.680;2022-07-03T09:18:50;31.60;64.50
15160;DHT22;7680;48.800;9.680;2022-07-03T09:21:23;31.70;63.40
15160;DHT22;7680;48.800;9.680;2022-07-03T09:24:03;31.40;64.60
15160;DHT22;7680;48.800;9.680;2022-07-03T09:26:50;31.40;65.80
15160;DHT22;7680;48.800;9.680;2022-07-03T09:29:25;31.10;64.60
15160;DHT22;7680;48.800;9.680;2022-07-03T09:31:58;31.10;63.70
15160;DHT22;7680;48.800;9.680;2022-07-03T09:34:32;31.00;64.50
15160;DHT22;7680;48.800;9.680;2022-07-03T09:37:05;31.00;66.00
15160;DHT22;7680;48.800;9.680;2022-07-03T09:39:38;31.20;64.70
15160;DHT22;7680;48.800;9.680;2022-07-03T09:42:12;31.10;64.40
15160;DHT22;7680;48.800;9.680;2022-07-03T09:44:47;31.10;63.00
15160;DHT22;7680;48.800;9.680;2022-07-03T09:47:22;31.00;63.70
15160;DHT22;7680;48.800;9.680;2022-07-03T09:49:57;30.90;63.80
15160;DHT22;7680;48.800;9.680;2022-07-03T09:52:34;31.00;64.60
15160;DHT22;7680;48.800;9.680;2022-07-03T09:55:17;31.10;62.40
15160;DHT22;7680;48.800;9.680;2022-07-03T09:58:00;30.90;64.60
15160;DHT22;7680;48.800;9.680;2022-07-03T10:00:35;31.00;64.10
15160;DHT22;7680;48.800;9.680;2022-07-03T10:03:09;30.70;61.50
15160;DHT22;7680;48.800;9.680;2022-07-03T10:05:44;30.80;62.40
15160;DHT22;7680;48.800;9.680;2022-07-03T10:08:17;30.80;62.30
15160;DHT22;7680;48.800;9.680;2022-07-03T10:10:50;30.70;62.10
15160;DHT22;7680;48.800;9.680;2022-07-03T10:13:24;30.60;61.90
15160;DHT22;7680;48.800;9.680;2022-07-03T10:15:59;30.60;61.50
15160;DHT22;7680;48.800;9.680;2022-07-03T10:18:36;30.70;64.80
15160;DHT22;7680;48.800;9.680;2022-07-03T10:21:10;30.50;62.20
15160;DHT22;7680;48.800;9.680;2022-07-03T10:23:46;30.40;61.80
15160;DHT22;7680;48.800;9.680;2022-07-03T10:26:19;30.30;61.90
15160;DHT22;7680;48.800;9.680;2022-07-03T10:28:52;30.20;64.50
15160;DHT22;7680;48.800;9.680;2022-07-03T10:31:28;30.10;64.50
15160;DHT22;7680;48.800;9.680;2022-07-03T10:34:01;30.20;64.10
15160;DHT22;7680;48.800;9.680;2022-07-03T10:36:36;30.30;63.10
15160;DHT22;7680;48.800;9.680;2022-07-03T10:39:15;30.20;63.20
15160;DHT22;7680;48.800;9.680;2022-07-03T10:42:13;30.20;62.40
15160;DHT22;7680;48.800;9.680;2022-07-03T10:45:08;30.00;62.30
15160;DHT22;7680;48.800;9.680;2022-07-03T10:47:46;30.00;62.90
15160;DHT22;7680;48.800;9.680;2022-07-03T10:50:22;30.00;62.60
15160;DHT22;7680;48.800;9.680;2022-07-03T10:53:21;30.10;63.80
15160;DHT22;7680;48.800;9.680;2022-07-03T10:56:03;30.00;60.90
15160;DHT22;7680;48.800;9.680;2022-07-03T10:58:54;29.90;63.70
15160;DHT22;7680;48.800;9.680;2022-07-03T11:01:28;29.90;63.80
15160;DHT22;7680;48.800;9.680;2022-07-03T11:04:04;29.90;64.60
15160;DHT22;7680;48.800;9.680;2022-07-03T11:07:10;29.90;65.50
15160;DHT22;7680;48.800;9.680;2022-07-03T11:09:43;29.90;65.90
15160;DHT22;7680;48.800;9.680;2022-07-03T11:12:16;29.80;63.40
15160;DHT22;7680;48.800;9.680;2022-07-03T11:15:30;29.80;64.70
15160;DHT22;7680;48.800;9.680;2022-07-03T11:18:18;29.60;62.90
15160;DHT22;7680;48.800;9.680;2022-07-03T11:21:21;29.70;63.60
15160;DHT22;7680;48.800;9.680;2022-07-03T11:27:23;29.70;66.50
15160;DHT22;7680;48.800;9.680;2022-07-03T11:29:58;29.80;63.50
15160;DHT22;7680;48.800;9.680;2022-07-03T11:32:53;29.60;64.20
15160;DHT22;7680;48.800;9.680;2022-07-03T11:35:46;29.50;61.10
15160;DHT22;7680;48.800;9.680;2022-07-03T11:38:28;29.20;64.10
15160;DHT22;7680;48.800;9.680;2022-07-03T11:41:07;29.20;61.50
15160;DHT22;7680;48.800;9.680;2022-07-03T11:43:46;29.20;65.10
15160;DHT22;7680;48.800;9.680;2022-07-03T11:46:21;29.40;64.60
15160;DHT22;7680;48.800;9.680;2022-07-03T11:49:04;29.30;63.90
15160;DHT22;7680;48.800;9.680;2022-07-03T11:51:38;29.30;64.10
15160;DHT22;7680;48.800;9.680;2022-07-03T11:54:14;29.30;64.00
15160;DHT22;7680;48.800;9.680;2022-07-03T11:56:47;29.30;63.20
15160;DHT22;7680;48.800;9.680;2022-07-03T11:59:20;29.20;62.10
15160;DHT22;7680;48.800;9.680;2022-07-03T12:02:01;29.10;64.00
15160;DHT22;7680;48.800;9.680;2022-07-03T12:04:36;29.20;66.20
15160;DHT22;7680;48.800;9.680;2022-07-03T12:07:11;29.20;65.30
15160;DHT22;7680;48.800;9.680;2022-07-03T12:09:49;29.20;65.50
15160;DHT22;7680;48.800;9.680;2022-07-03T12:12:23;29.20;66.00
15160;DHT22;7680;48.800;9.680;2022-07-03T12:14:57;29.20;66.00
15160;DHT22;7680;48.800;9.680;2022-07-03T12:17:30;29.20;63.80
15160;DHT22;7680;48.800;9.680;2022-07-03T12:20:04;29.00;62.60
15160;DHT22;7680;48.800;9.680;2022-07-03T12:22:41;28.90;64.30
15160;DHT22;7680;48.800;9.680;2022-07-03T12:25:18;28.90;66.40
15160;DHT22;7680;48.800;9.680;2022-07-03T12:27:51;29.00;67.30
15160;DHT22;7680;48.800;9.680;2022-07-03T12:30:25;29.10;67.70
15160;DHT22;7680;48.800;9.680;2022-07-03T12:32:59;29.20;65.80
15160;DHT22;7680;48.800;9.680;2022-07-03T12:35:32;29.10;65.80
15160;DHT22;7680;48.800;9.680;2022-07-03T12:38:05;29.10;64.80
15160;DHT22;7680;48.800;9.680;2022-07-03T12:40:40;29.10;66.30
15160;DHT22;7680;48.800;9.680;2022-07-03T12:43:13;29.10;66.50
15160;DHT22;7680;48.800;9.680;2022-07-03T12:45:46;29.00;64.90
15160;DHT22;7680;48.800;9.680;2022-07-03T12:48:20;29.00;65.70
15160;DHT22;7680;48.800;9.680;2022-07-03T12:50:53;29.10;66.10
15160;DHT22;7680;48.800;9.680;2022-07-03T12:53:27;29.20;66.70
15160;DHT22;7680;48.800;9.680;2022-07-03T12:56:03;29.20;66.90
15160;DHT22;7680;48.800;9.680;2022-07-03T12:58:38;29.20;65.00
15160;DHT22;7680;48.800;9.680;2022-07-03T13:01:31;29.20;66.40
15160;DHT22;7680;48.800;9.680;2022-07-03T13:04:07;29.30;64.60
15160;DHT22;7680;48.800;9.680;2022-07-03T13:06:41;29.30;66.10
15160;DHT22;7680;48.800;9.680;2022-07-03T13:09:24;29.30;69.00
15160;DHT22;7680;48.800;9.680;2022-07-03T13:11:59;29.30;68.10
15160;DHT22;7680;48.800;9.680;2022-07-03T13:14:32;29.30;66.30
15160;DHT22;7680;48.800;9.680;2022-07-03T13:17:05;29.30;65.50
15160;DHT22;7680;48.800;9.680;2022-07-03T13:19:39;29.20;66.20
15160;DHT22;7680;48.800;9.680;2022-07-03T13:22:12;29.20;67.20
15160;DHT22;7680;48.800;9.680;2022-07-03T13:24:45;29.20;68.40
15160;DHT22;7680;48.800;9.680;2022-07-03T13:27:19;29.20;68.00
15160;DHT22;7680;48.800;9.680;2022-07-03T13:29:52;29.30;68.00
15160;DHT22;7680;48.800;9.680;2022-07-03T13:32:26;29.30;67.10
15160;DHT22;7680;48.800;9.680;2022-07-03T13:34:59;29.30;67.10
15160;DHT22;7680;48.800;9.680;2022-07-03T13:37:32;29.30;68.30
15160;DHT22;7680;48.800;9.680;2022-07-03T13:40:06;29.40;65.40
15160;DHT22;7680;48.800;9.680;2022-07-03T13:42:41;29.30;64.00
15160;DHT22;7680;48.800;9.680;2022-07-03T13:45:15;29.20;63.00
15160;DHT22;7680;48.800;9.680;2022-07-03T13:47:48;29.20;65.40
15160;DHT22;7680;48.800;9.680;2022-07-03T13:50:21;29.20;63.60
15160;DHT22;7680;48.800;9.680;2022-07-03T13:52:54;29.10;64.20
15160;DHT22;7680;48.800;9.680;2022-07-03T13:55:27;29.20;67.00
15160;DHT22;7680;48.800;9.680;2022-07-03T13:58:02;29.30;63.60
15160;DHT22;7680;48.800;9.680;2022-07-03T14:00:37;29.20;62.20
15160;DHT22;7680;48.800;9.680;2022-07-03T14:03:10;29.20;62.30
15160;DHT22;7680;48.800;9.680;2022-07-03T14:05:43;29.40;60.20
15160;DHT22;7680;48.800;9.680;2022-07-03T14:08:17;29.20;61.70
15160;DHT22;7680;48.800;9.680;2022-07-03T14:10:50;29.20;61.40
15160;DHT22;7680;48.800;9.680;2022-07-03T14:13:25;29.00;62.80
15160;DHT22;7680;48.800;9.680;2022-07-03T14:15:59;29.00;63.60
15160;DHT22;7680;48.800;9.680;2022-07-03T14:18:33;29.10;61.70
15160;DHT22;7680;48.800;9.680;2022-07-03T14:21:06;29.10;61.90
15160;DHT22;7680;48.800;9.680;2022-07-03T14:23:39;29.20;61.60
15160;DHT22;7680;48.800;9.680;2022-07-03T14:26:12;29.30;62.30
15160;DHT22;7680;48.800;9.680;2022-07-03T14:28:46;29.20;63.20
15160;DHT22;7680;48.800;9.680;2022-07-03T14:31:49;29.30;63.20
15160;DHT22;7680;48.800;9.680;2022-07-03T14:34:40;29.40;62.30
15160;DHT22;7680;48.800;9.680;2022-07-03T14:37:21;29.40;62.80
15160;DHT22;7680;48.800;9.680;2022-07-03T14:39:55;29.40;63.60
15160;DHT22;7680;48.800;9.680;2022-07-03T14:42:28;29.40;61.30
15160;DHT22;7680;48.800;9.680;2022-07-03T14:45:03;29.40;59.70
15160;DHT22;7680;48.800;9.680;2022-07-03T14:47:37;29.40;61.80
15160;DHT22;7680;48.800;9.680;2022-07-03T14:50:10;29.40;60.40
15160;DHT22;7680;48.800;9.680;2022-07-03T14:52:44;29.40;60.60
15160;DHT22;7680;48.800;9.680;2022-07-03T14:55:17;29.40;61.30
15160;DHT22;7680;48.800;9.680;2022-07-03T14:57:53;29.30;62.20
15160;DHT22;7680;48.800;9.680;2022-07-03T15:00:36;29.30;63.10
15160;DHT22;7680;48.800;9.680;2022-07-03T15:03:17;29.40;63.30
15160;DHT22;7680;48.800;9.680;2022-07-03T15:05:51;29.30;61.60
15160;DHT22;7680;48.800;9.680;2022-07-03T15:08:42;29.30;59.80
15160;DHT22;7680;48.800;9.680;2022-07-03T15:11:20;29.40;63.30
15160;DHT22;7680;48.800;9.680;2022-07-03T15:14:14;29.30;59.80
15160;DHT22;7680;48.800;9.680;2022-07-03T15:16:49;29.40;61.10
15160;DHT22;7680;48.800;9.680;2022-07-03T15:19:23;29.40;61.60
15160;DHT22;7680;48.800;9.680;2022-07-03T15:21:57;29.40;61.70
15160;DHT22;7680;48.800;9.680;2022-07-03T15:24:30;29.40;59.50
15160;DHT22;7680;48.800;9.680;2022-07-03T15:27:05;29.40;60.70
15160;DHT22;7680;48.800;9.680;2022-07-03T15:29:38;29.50;61.40
15160;DHT22;7680;48.800;9.680;2022-07-03T15:32:16;29.50;61.70
15160;DHT22;7680;48.800;9.680;2022-07-03T15:34:49;29.50;61.50
15160;DHT22;7680;48.800;9.680;2022-07-03T15:37:33;29.50;61.30
15160;DHT22;7680;48.800;9.680;2022-07-03T15:40:18;29.60;59.80
15160;DHT22;7680;48.800;9.680;2022-07-03T15:43:08;29.70;59.90
15160;DHT22;7680;48.800;9.680;2022-07-03T15:45:55;29.60;59.80
15160;DHT22;7680;48.800;9.680;2022-07-03T15:48:44;29.50;59.70
15160;DHT22;7680;48.800;9.680;2022-07-03T15:51:22;29.50;60.80
15160;DHT22;7680;48.800;9.680;2022-07-03T15:54:08;29.40;61.70
15160;DHT22;7680;48.800;9.680;2022-07-03T15:56:44;29.40;61.70
15160;DHT22;7680;48.800;9.680;2022-07-03T15:59:19;29.30;60.20
15160;DHT22;7680;48.800;9.680;2022-07-03T16:01:58;29.30;61.90
15160;DHT22;7680;48.800;9.680;2022-07-03T16:05:02;29.20;62.00
15160;DHT22;7680;48.800;9.680;2022-07-03T16:07:38;29.10;63.90
15160;DHT22;7680;48.800;9.680;2022-07-03T16:10:12;29.10;64.70
15160;DHT22;7680;48.800;9.680;2022-07-03T16:12:47;29.00;64.60
15160;DHT22;7680;48.800;9.680;2022-07-03T16:15:21;28.90;64.00
15160;DHT22;7680;48.800;9.680;2022-07-03T16:17:55;28.90;64.10
15160;DHT22;7680;48.800;9.680;2022-07-03T16:20:31;28.90;64.50
15160;DHT22;7680;48.800;9.680;2022-07-03T16:23:07;28.80;64.40
15160;DHT22;7680;48.800;9.680;2022-07-03T16:25:42;28.70;66.30
15160;DHT22;7680;48.800;9.680;2022-07-03T16:28:16;28.60;66.90
15160;DHT22;7680;48.800;9.680;2022-07-03T16:30:51;28.60;68.10
15160;DHT22;7680;48.800;9.680;2022-07-03T16:33:27;28.60;67.10
15160;DHT22;7680;48.800;9.680;2022-07-03T16:36:13;28.50;66.00
15160;DHT22;7680;48.800;9.680;2022-07-03T16:38:51;28.50;65.70
15160;DHT22;7680;48.800;9.680;2022-07-03T16:41:34;28.50;66.50
15160;DHT22;7680;48.800;9.680;2022-07-03T16:44:09;28.40;68.00
15160;DHT22;7680;48.800;9.680;2022-07-03T16:46:44;28.40;70.00